Time;durP1;ratioP1;P1;durP2;ratioP2;P2;SDS_P1;SDS_P2;PMS_P1;PMS_P2;Temp;Humidity;BMP_temperature;BMP_pressure;BME280_temperature;BME280_humidity;BME280_pressure;Samples;Min_cycle;Max_cycle;Signal;HPM_P1;HPM_P2
2021/06/04 00:01:50;;;;;;;;;;;;;;;22.97;54.69;101879.31;5090118;28;941;-71
2021/06/04 00:04:16;;;;;;;;;;;;;;;22.96;54.58;101874.09;5088720;28;1304;-71
2021/06/04 00:06:42;;;;;;;;;;;;;;;22.96;54.54;101876.84;5089820;28;929;-71
2021/06/04 00:09:08;;;;;;;;;;;;;;;22.96;54.30;101877.69;5089990;28;1271;-71
2021/06/04 00:11:42;;;;;;;;;;;;;;;22.94;54.61;101877.16;5089803;28;921;-71
2021/06/04 00:14:16;;;;;;;;;;;;;;;22.93;54.20;101878.25;5090144;28;870;-71
2021/06/04 00:16:43;;;;;;;;;;;;;;;22.93;54.50;101870.81;5089955;28;1927;-71
2021/06/04 00:19:11;;;;;;;;;;;;;;;22.93;54.53;101864.50;5089812;28;890;-72
2021/06/04 00:21:39;;;;;;;;;;;;;;;22.92;54.78;101871.13;5089795;28;894;-71
2021/06/04 00:24:05;;;;;;;;;;;;;;;22.94;54.49;101868.91;5089917;28;1004;-71
2021/06/04 00:26:32;;;;;;;;;;;;;;;22.97;54.91;101871.06;5090952;28;955;-71
2021/06/04 00:28:57;;;;;;;;;;;;;;;22.99;54.95;101866.13;5093503;28;960;-71
2021/06/04 00:31:23;;;;;;;;;;;;;;;22.97;54.76;101873.00;5093482;28;1032;-71
2021/06/04 00:33:49;;;;;;;;;;;;;;;22.96;54.91;101868.59;5093729;28;915;-73
2021/06/04 00:36:15;;;;;;;;;;;;;;;22.97;54.80;101878.50;5093586;28;1874;-73
2021/06/04 00:38:41;;;;;;;;;;;;;;;22.93;54.95;101881.00;5093395;28;1145;-72
2021/06/04 00:41:07;;;;;;;;;;;;;;;22.96;54.97;101879.59;5092933;28;853;-71
2021/06/04 00:43:33;;;;;;;;;;;;;;;22.97;55.01;101878.50;5093301;28;1146;-71
2021/06/04 00:46:00;;;;;;;;;;;;;;;22.97;54.91;101884.00;5089447;28;2079;-71
2021/06/04 00:48:27;;;;;;;;;;;;;;;22.97;54.68;101878.50;5090263;28;893;-71
2021/06/04 00:50:59;;;;;;;;;;;;;;;22.96;54.64;101882.34;5082937;28;985;-71
2021/06/04 00:53:24;;;;;;;;;;;;;;;22.96;54.88;101880.44;5072923;28;1338;-71
2021/06/04 00:55:50;;;;;;;;;;;;;;;22.96;54.57;101879.59;5072845;28;1967;-71
2021/06/04 00:58:18;;;;;;;;;;;;;;;22.96;54.53;101885.94;5072884;28;897;-71
2021/06/04 01:00:48;;;;;;;;;;;;;;;22.94;54.59;101880.72;5072933;28;1205;-71
2021/06/04 01:03:14;;;;;;;;;;;;;;;22.97;54.36;101881.25;5072589;28;999;-71
2021/06/04 01:05:41;;;;;;;;;;;;;;;22.98;54.35;101883.72;5072818;28;862;-71
2021/06/04 01:08:15;;;;;;;;;;;;;;;22.99;54.47;101885.34;5072628;28;933;-71
2021/06/04 01:10:55;;;;;;;;;;;;;;;23.01;54.34;101879.59;5072191;28;866;-71
2021/06/04 01:13:32;;;;;;;;;;;;;;;22.98;54.61;101877.38;5072481;28;885;-71
2021/06/04 01:15:58;;;;;;;;;;;;;;;22.92;54.76;101880.19;5072434;28;1929;-71
2021/06/04 01:18:36;;;;;;;;;;;;;;;22.92;54.51;101891.16;5072473;28;893;-71
2021/06/04 01:21:06;;;;;;;;;;;;;;;22.90;54.57;101876.91;5072462;28;1219;-71
2021/06/04 01:24:00;;;;;;;;;;;;;;;22.89;54.49;101877.97;5071973;28;964;-72
2021/06/04 01:27:01;;;;;;;;;;;;;;;22.91;54.61;101883.19;5052517;28;1270;-71
2021/06/04 01:29:30;;;;;;;;;;;;;;;22.88;54.75;101875.53;5049830;28;1386;-71
2021/06/04 01:31:58;;;;;;;;;;;;;;;22.89;54.84;101871.69;5068042;28;934;-71
2021/06/04 01:34:34;;;;;;;;;;;;;;;22.89;54.84;101883.47;5072097;28;859;-71
2021/06/04 01:37:08;;;;;;;;;;;;;;;22.89;54.92;101871.69;5071923;28;1898;-71
2021/06/04 01:39:35;;;;;;;;;;;;;;;22.90;54.89;101874.16;5071434;28;902;-71
2021/06/04 01:42:03;;;;;;;;;;;;;;;22.88;55.37;101879.09;5072204;28;1187;-71
2021/06/04 01:44:40;;;;;;;;;;;;;;;22.88;55.34;101879.09;5071840;28;1253;-71
2021/06/04 01:47:07;;;;;;;;;;;;;;;22.90;55.39;101865.91;5071849;28;880;-70
2021/06/04 01:49:35;;;;;;;;;;;;;;;22.93;55.67;101876.31;5071689;28;896;-70
2021/06/04 01:52:07;;;;;;;;;;;;;;;22.91;56.13;101875.78;5071759;28;924;-71
2021/06/04 01:54:45;;;;;;;;;;;;;;;22.95;56.31;101876.03;5071128;28;1157;-70
2021/06/04 01:57:15;;;;;;;;;;;;;;;22.97;56.45;101884.81;5071517;28;1926;-72
2021/06/04 01:59:43;;;;;;;;;;;;;;;22.93;56.69;101881.00;5071568;28;873;-71
2021/06/04 02:02:10;;;;;;;;;;;;;;;22.92;56.88;101885.69;5071658;28;925;-71
2021/06/04 02:04:37;;;;;;;;;;;;;;;22.95;56.91;101889.78;5071542;28;835;-70
2021/06/04 02:07:07;;;;;;;;;;;;;;;22.95;56.81;101892.53;5071200;28;868;-70
2021/06/04 02:09:32;;;;;;;;;;;;;;;22.96;56.68;101888.69;5071422;28;1265;-70
2021/06/04 02:11:58;;;;;;;;;;;;;;;22.96;56.62;101894.19;5071311;28;910;-70
2021/06/04 02:14:29;;;;;;;;;;;;;;;22.94;56.50;101899.94;5071167;28;894;-70
2021/06/04 02:16:54;;;;;;;;;;;;;;;22.96;56.55;101899.69;5071320;28;1940;-69
2021/06/04 02:19:26;;;;;;;;;;;;;;;22.96;56.45;101907.06;5071008;28;907;-69
2021/06/04 02:21:54;;;;;;;;;;;;;;;23.00;56.10;101903.50;5070820;28;802;-69
2021/06/04 02:24:28;;;;;;;;;;;;;;;22.98;56.16;101902.13;5071124;28;1024;-69
2021/06/04 02:27:00;;;;;;;;;;;;;;;22.99;55.91;101914.75;5071060;28;940;-69
2021/06/04 02:29:28;;;;;;;;;;;;;;;22.98;55.65;101908.47;5071021;28;873;-69
2021/06/04 02:32:00;;;;;;;;;;;;;;;23.00;55.90;101919.13;5071017;28;889;-69
2021/06/04 02:34:30;;;;;;;;;;;;;;;22.98;56.11;101915.84;5070992;28;907;-68
2021/06/04 02:36:58;;;;;;;;;;;;;;;22.94;55.80;101916.44;5070452;28;1886;-70
2021/06/04 02:39:23;;;;;;;;;;;;;;;22.92;56.21;101913.16;5070866;28;957;-71
2021/06/04 02:41:56;;;;;;;;;;;;;;;22.93;56.19;101920.28;5070774;28;925;-70
2021/06/04 02:44:23;;;;;;;;;;;;;;;22.92;55.92;101923.31;5070882;28;924;-70
2021/06/04 02:47:12;;;;;;;;;;;;;;;22.93;56.14;101928.50;5070795;28;886;-71
2021/06/04 02:49:38;;;;;;;;;;;;;;;22.93;55.95;101931.25;5066652;28;1024;-70
2021/06/04 02:52:23;;;;;;;;;;;;;;;22.90;55.84;101933.78;5070317;28;865;-70
2021/06/04 02:54:49;;;;;;;;;;;;;;;22.95;55.60;101939.22;5066136;28;1439;-71
2021/06/04 02:57:15;;;;;;;;;;;;;;;22.94;55.74;101932.09;5070483;28;1902;-71
2021/06/04 02:59:42;;;;;;;;;;;;;;;22.92;55.51;101932.38;5070447;28;894;-70
2021/06/04 03:02:10;;;;;;;;;;;;;;;22.96;55.73;101934.56;5070610;28;885;-70
2021/06/04 03:04:37;;;;;;;;;;;;;;;22.96;55.69;101926.31;5070548;28;901;-70
2021/06/04 03:07:05;;;;;;;;;;;;;;;22.93;55.61;101931.25;5071509;28;1855;-70
2021/06/04 03:09:32;;;;;;;;;;;;;;;22.94;55.46;101935.66;5078413;28;1132;-70
2021/06/04 03:12:00;;;;;;;;;;;;;;;22.95;55.44;101933.72;5082407;28;1239;-70
2021/06/04 03:14:26;;;;;;;;;;;;;;;22.92;55.34;101937.88;5070657;28;1264;-70
2021/06/04 03:16:52;;;;;;;;;;;;;;;22.96;55.93;101945.53;5083248;28;1862;-69
2021/06/04 03:19:18;;;;;;;;;;;;;;;22.96;55.71;101932.66;5090391;28;866;-70
2021/06/04 03:21:48;;;;;;;;;;;;;;;22.99;56.62;101934.81;5084271;28;1782;-71
2021/06/04 03:24:15;;;;;;;;;;;;;;;23.05;56.18;101939.22;5076050;28;850;-71
2021/06/04 03:26:40;;;;;;;;;;;;;;;23.05;56.16;101936.47;5075692;28;1121;-71
2021/06/04 03:29:08;;;;;;;;;;;;;;;23.06;56.18;101940.88;5069604;28;1237;-70
2021/06/04 03:31:36;;;;;;;;;;;;;;;23.19;55.76;101939.41;5069534;28;1291;-71
2021/06/04 03:34:01;;;;;;;;;;;;;;;23.07;56.26;101936.19;5070036;28;1239;-71
2021/06/04 03:36:29;;;;;;;;;;;;;;;23.05;55.86;101941.97;5070105;28;1928;-72
2021/06/04 03:38:55;;;;;;;;;;;;;;;23.05;56.81;101941.16;5070271;28;1267;-69
2021/06/04 03:41:26;;;;;;;;;;;;;;;22.89;54.46;101943.09;5069981;28;891;-71
2021/06/04 03:43:52;;;;;;;;;;;;;;;22.83;55.62;101945.03;5069972;28;1571;-73
2021/06/04 03:46:17;;;;;;;;;;;;;;;23.24;54.48;101953.16;5070198;28;866;-72
2021/06/04 03:48:42;;;;;;;;;;;;;;;23.51;53.61;101952.69;5069840;28;1325;-71
2021/06/04 03:51:18;;;;;;;;;;;;;;;23.66;53.19;101946.28;5070146;28;883;-72
2021/06/04 03:53:43;;;;;;;;;;;;;;;23.73;52.80;101945.97;5069847;28;1260;-72
2021/06/04 03:56:10;;;;;;;;;;;;;;;23.70;52.80;101960.28;5069802;28;1973;-72
2021/06/04 03:58:36;;;;;;;;;;;;;;;23.73;52.48;101949.53;5070174;28;869;-74
2021/06/04 04:01:07;;;;;;;;;;;;;;;23.79;52.15;101955.84;5070697;28;1413;-70
2021/06/04 04:03:33;;;;;;;;;;;;;;;23.81;52.56;101956.38;5073382;28;874;-70
2021/06/04 04:05:58;;;;;;;;;;;;;;;23.84;51.82;101960.47;5073611;28;914;-70
2021/06/04 04:08:25;;;;;;;;;;;;;;;23.87;52.03;101955.22;5073630;28;839;-69
2021/06/04 04:10:50;;;;;;;;;;;;;;;23.84;52.17;101954.97;5073553;28;869;-70
2021/06/04 04:13:17;;;;;;;;;;;;;;;23.83;52.17;101951.41;5073683;28;891;-72
2021/06/04 04:15:47;;;;;;;;;;;;;;;23.83;52.22;101958.84;5072383;28;1241;-72
2021/06/04 04:18:12;;;;;;;;;;;;;;;23.78;52.20;101945.13;5071898;28;1898;-72
2021/06/04 04:20:40;;;;;;;;;;;;;;;23.86;51.79;101955.50;5073366;28;878;-72
2021/06/04 04:23:07;;;;;;;;;;;;;;;23.87;51.98;101954.41;5073221;28;962;-72
2021/06/04 04:25:34;;;;;;;;;;;;;;;23.86;51.97;101948.06;5072918;28;923;-72
2021/06/04 04:28:00;;;;;;;;;;;;;;;23.28;49.52;101953.38;5072050;28;845;-70
2021/06/04 04:30:25;;;;;;;;;;;;;;;22.68;50.59;101950.59;5072270;28;907;-70
2021/06/04 04:32:51;;;;;;;;;;;;;;;22.52;50.87;101953.38;5071012;28;1126;-70
2021/06/04 04:35:18;;;;;;;;;;;;;;;22.54;52.29;101950.38;5071460;28;1173;-70
2021/06/04 04:37:44;;;;;;;;;;;;;;;22.46;51.79;101950.94;5071584;28;1886;-70
2021/06/04 04:40:10;;;;;;;;;;;;;;;22.43;51.78;101954.22;5071418;28;875;-70
2021/06/04 04:42:35;;;;;;;;;;;;;;;22.40;52.06;101954.78;5070513;28;1224;-70
2021/06/04 04:45:02;;;;;;;;;;;;;;;22.39;51.79;101955.88;5074139;28;1923;-70
2021/06/04 04:47:27;;;;;;;;;;;;;;;22.50;52.72;101954.75;5068282;28;886;-74
2021/06/04 04:49:52;;;;;;;;;;;;;;;22.68;52.31;101954.16;5086428;28;858;-71
2021/06/04 04:52:18;;;;;;;;;;;;;;;;;;5072238;28;847;-71
2021/06/04 04:54:48;;;;;;;;;;;;;;;22.41;52.13;101953.69;5069917;28;1435;-71
2021/06/04 04:57:14;;;;;;;;;;;;;;;22.31;52.70;101966.31;5071010;28;1922;-72
2021/06/04 04:59:40;;;;;;;;;;;;;;;22.30;52.28;101959.19;5071053;28;866;-72
2021/06/04 05:02:05;;;;;;;;;;;;;;;22.31;52.41;101963.56;5070631;28;881;-72
2021/06/04 05:04:31;;;;;;;;;;;;;;;22.41;52.37;101970.16;5070916;28;827;-72
2021/06/04 05:06:56;;;;;;;;;;;;;;;22.33;52.44;101966.88;5070462;28;799;-71
2021/06/04 05:09:21;;;;;;;;;;;;;;;22.29;52.86;101960.25;5076709;28;1388;-71
2021/06/04 05:11:48;;;;;;;;;;;;;;;22.31;52.33;101963.56;5082699;28;1414;-72
2021/06/04 05:14:13;;;;;;;;;;;;;;;22.31;52.65;101969.03;5078000;28;1580;-72
2021/06/04 07:35:50;;;;;;;;;;;;;;;23.04;53.95;101965.06;5100815;27;1344;-79
2021/06/04 07:38:15;;;;;;;;;;;;;;;23.27;53.39;101960.00;5068440;28;1044;-78
2021/06/04 07:40:40;;;;;;;;;;;;;;;23.15;53.56;101962.25;5069690;28;1356;-78
2021/06/04 07:43:08;;;;;;;;;;;;;;;23.17;52.99;101971.06;5068186;28;1419;-77
2021/06/04 07:45:36;;;;;;;;;;;;;;;23.21;53.09;101974.88;5066073;28;1637;-78
2021/06/04 07:48:02;;;;;;;;;;;;;;;23.09;52.78;101976.00;5066153;28;1530;-77
2021/06/04 07:50:28;;;;;;;;;;;;;;;23.04;52.71;101965.06;5068789;28;1090;-78
2021/06/04 07:52:53;;;;;;;;;;;;;;;23.15;52.36;101965.00;5067840;28;1181;-78
2021/06/04 07:55:19;;;;;;;;;;;;;;;23.14;51.25;101969.69;5067910;28;1973;-80
2021/06/04 07:57:44;;;;;;;;;;;;;;;23.12;51.86;101966.41;5066290;28;1230;-80
2021/06/04 08:00:16;;;;;;;;;;;;;;;23.04;52.14;101964.22;5063148;28;1199;-80
2021/06/04 08:02:41;;;;;;;;;;;;;;;23.02;51.24;101966.44;5065121;28;810;-78
2021/06/04 08:05:07;;;;;;;;;;;;;;;23.03;51.06;101952.41;5063236;28;1309;-80
2021/06/04 08:07:32;;;;;;;;;;;;;;;23.00;51.79;101963.09;5063042;28;1325;-78
2021/06/04 08:09:58;;;;;;;;;;;;;;;23.02;51.06;101958.19;5063268;28;1023;-78
2021/06/04 08:12:30;;;;;;;;;;;;;;;23.06;51.79;101951.03;5054947;28;1355;-78
2021/06/04 08:14:57;;;;;;;;;;;;;;;23.04;51.92;101954.06;5058203;28;1882;-79
2021/06/04 08:17:22;;;;;;;;;;;;;;;23.03;52.08;101963.41;5058768;28;1475;-78
2021/06/04 08:19:48;;;;;;;;;;;;;;;23.04;52.54;101958.72;5056634;28;1289;-78
2021/06/04 08:22:13;;;;;;;;;;;;;;;23.03;52.11;101962.59;5064029;28;1036;-78
2021/06/04 08:24:38;;;;;;;;;;;;;;;23.01;52.32;101971.06;5062138;28;1206;-79
2021/06/04 08:27:04;;;;;;;;;;;;;;;23.01;52.49;101981.25;5064079;28;1066;-79
2021/06/04 08:29:33;;;;;;;;;;;;;;;23.00;52.48;101977.69;5064435;28;1087;-79
2021/06/04 08:31:58;;;;;;;;;;;;;;;23.06;52.29;101973.84;5062621;28;1306;-78
2021/06/04 08:34:24;;;;;;;;;;;;;;;23.04;52.03;101972.47;5064233;28;1923;-80
2021/06/04 08:36:50;;;;;;;;;;;;;;;23.01;52.24;101981.25;5063970;28;822;-78
2021/06/04 08:39:17;;;;;;;;;;;;;;;23.03;51.66;101990.88;5062349;28;1569;-76
2021/06/04 08:41:48;;;;;;;;;;;;;;;23.02;51.74;101975.50;5063432;28;1024;-76
2021/06/04 08:44:13;;;;;;;;;;;;;;;22.97;51.80;101974.69;5064169;28;890;-77
2021/06/04 08:46:42;;;;;;;;;;;;;;;23.00;51.61;101980.44;5053980;28;806;-77
2021/06/04 08:49:13;;;;;;;;;;;;;;;23.06;51.36;101976.59;5050533;28;870;-76
2021/06/04 08:51:50;;;;;;;;;;;;;;;23.08;51.20;101968.88;5050544;28;962;-76
2021/06/04 08:54:19;;;;;;;;;;;;;;;23.02;51.81;101972.78;5048681;28;1965;-75
2021/06/04 08:56:47;;;;;;;;;;;;;;;23.04;51.72;101975.22;5049931;28;1226;-76
2021/06/04 08:59:14;;;;;;;;;;;;;;;22.96;51.95;101973.84;5043806;28;1377;-77
2021/06/04 09:01:52;;;;;;;;;;;;;;;23.00;51.13;101971.34;5034470;28;1385;-74
2021/06/04 09:04:21;;;;;;;;;;;;;;;22.96;51.46;101973.84;5042357;28;1274;-76
2021/06/04 09:07:00;;;;;;;;;;;;;;;23.04;51.08;101975.22;5030626;28;789;-77
2021/06/04 09:09:26;;;;;;;;;;;;;;;23.01;50.71;101984.00;5030034;28;892;-76
2021/06/04 09:11:56;;;;;;;;;;;;;;;23.08;49.31;101981.78;5047119;28;1011;-76
2021/06/04 09:14:21;;;;;;;;;;;;;;;23.12;49.61;101975.47;5048919;28;1948;-77
2021/06/04 09:17:06;;;;;;;;;;;;;;;23.09;50.08;101976.00;5049415;28;1240;-77
2021/06/04 09:19:50;;;;;;;;;;;;;;;23.10;49.74;101979.56;5049141;28;1190;-77
2021/06/04 09:22:15;;;;;;;;;;;;;;;23.04;49.79;101972.47;5029220;28;1197;-76
2021/06/04 09:24:42;;;;;;;;;;;;;;;23.00;49.52;101979.59;5031302;28;821;-77
2021/06/04 09:27:26;;;;;;;;;;;;;;;23.01;49.52;101978.50;5048653;28;1272;-76
2021/06/04 09:30:04;;;;;;;;;;;;;;;22.99;49.09;101976.03;5050457;28;818;-76
2021/06/04 09:32:29;;;;;;;;;;;;;;;23.02;49.28;101989.25;5050589;28;976;-76
2021/06/04 09:35:06;;;;;;;;;;;;;;;23.00;49.16;101985.09;5051311;28;2024;-77
2021/06/04 09:37:33;;;;;;;;;;;;;;;23.01;49.88;101987.56;5051900;28;1110;-77
2021/06/04 09:40:07;;;;;;;;;;;;;;;23.02;49.57;101986.50;5053674;28;1188;-77
2021/06/04 09:42:33;;;;;;;;;;;;;;;23.06;49.92;101982.09;5050992;28;1284;-76
2021/06/04 09:45:11;;;;;;;;;;;;;;;23.10;49.50;101988.66;5051730;28;1241;-77
2021/06/04 09:47:42;;;;;;;;;;;;;;;23.03;50.03;101979.06;5051221;28;1202;-77
2021/06/04 09:50:16;;;;;;;;;;;;;;;23.09;49.36;101988.94;5050350;28;1229;-77
2021/06/04 09:52:42;;;;;;;;;;;;;;;23.03;49.66;101990.88;5045750;28;1332;-77
2021/06/04 09:55:21;;;;;;;;;;;;;;;23.06;50.06;101986.75;5052000;28;1898;-78
2021/06/04 09:57:55;;;;;;;;;;;;;;;23.04;50.86;101987.03;5051219;28;1162;-78
2021/06/04 10:00:25;;;;;;;;;;;;;;;23.09;51.12;101988.94;5050961;28;1641;-76
2021/06/04 10:02:50;;;;;;;;;;;;;;;23.03;51.57;101984.56;5052874;28;1208;-78
2021/06/04 10:05:15;;;;;;;;;;;;;;;23.04;52.08;101986.19;5054096;28;861;-81
2021/06/04 10:07:41;;;;;;;;;;;;;;;23.09;51.27;101984.25;5052075;28;1310;-81
2021/06/04 10:10:11;;;;;;;;;;;;;;;23.07;51.63;101991.16;5052846;28;983;-81
2021/06/04 10:12:49;;;;;;;;;;;;;;;23.08;51.46;101984.53;5052752;28;1039;-80
2021/06/04 10:15:29;;;;;;;;;;;;;;;23.17;51.64;101990.28;5051536;28;1870;-79
2021/06/04 10:20:25;;;;;;;;;;;;;;;23.17;51.27;101990.28;5052436;28;790;-86
2021/06/04 10:23:01;;;;;;;;;;;;;;;23.09;51.57;101980.69;5050947;28;1212;-78
2021/06/04 10:25:28;;;;;;;;;;;;;;;23.18;51.23;101994.66;5050916;28;1246;-77
2021/06/04 10:27:54;;;;;;;;;;;;;;;23.11;50.44;101994.97;5051037;28;1301;-78
2021/06/04 10:30:22;;;;;;;;;;;;;;;23.13;50.64;101988.09;5052493;28;816;-81
2021/06/04 10:32:47;;;;;;;;;;;;;;;23.11;50.44;101990.28;5052547;28;786;-85
2021/06/04 10:35:15;;;;;;;;;;;;;;;23.14;49.93;101988.94;5052204;28;1890;-83
2021/06/04 10:37:44;;;;;;;;;;;;;;;23.14;50.05;101988.94;5052747;28;910;-85
2021/06/04 10:40:13;;;;;;;;;;;;;;;23.18;49.81;101986.41;5052263;28;1315;-78
2021/06/04 10:42:51;;;;;;;;;;;;;;;23.16;50.18;101983.97;5051548;28;1258;-77
2021/06/04 10:45:18;;;;;;;;;;;;;;;23.16;49.89;101989.47;5052517;28;826;-78
2021/06/04 10:47:55;;;;;;;;;;;;;;;23.15;50.25;101979.56;5051169;28;1389;-77
2021/06/04 10:50:29;;;;;;;;;;;;;;;23.15;50.39;101992.50;5051991;28;878;-78
2021/06/04 10:53:13;;;;;;;;;;;;;;;23.16;51.39;101983.13;5064698;28;1741;-74
2021/06/04 10:55:42;;;;;;;;;;;;;;;23.20;51.37;101978.72;5064937;28;1914;-78
2021/06/04 10:58:11;;;;;;;;;;;;;;;23.16;51.41;101983.13;5051103;28;1618;-79
2021/06/04 11:00:43;;;;;;;;;;;;;;;23.17;51.90;101996.59;5052463;28;897;-79
2021/06/04 11:03:17;;;;;;;;;;;;;;;23.22;52.05;101985.59;5052451;28;819;-79
2021/06/04 11:05:48;;;;;;;;;;;;;;;23.23;51.97;101987.22;5052827;28;791;-80
2021/06/04 11:08:29;;;;;;;;;;;;;;;23.21;52.19;101981.19;5050929;28;1391;-79
2021/06/04 11:10:59;;;;;;;;;;;;;;;23.21;51.92;101981.19;5052152;28;1019;-79
2021/06/04 11:13:57;;;;;;;;;;;;;;;23.25;51.62;101982.28;5051644;28;1134;-74
2021/06/04 11:16:29;;;;;;;;;;;;;;;23.25;51.26;101981.44;5038016;28;1284;-74
2021/06/04 11:19:09;;;;;;;;;;;;;;;23.28;51.51;101983.63;5049846;28;889;-76
2021/06/04 11:21:42;;;;;;;;;;;;;;;23.25;51.23;101981.44;5038591;28;1822;-73
2021/06/04 11:24:16;;;;;;;;;;;;;;;23.21;51.51;101978.44;5045491;28;862;-73
2021/06/04 11:26:43;;;;;;;;;;;;;;;23.25;50.66;101974.03;5049777;28;1054;-74
2021/06/04 11:29:22;;;;;;;;;;;;;;;23.36;49.58;101983.03;5050451;28;849;-73
2021/06/04 11:31:48;;;;;;;;;;;;;;;23.33;50.45;101978.09;5042279;28;2148;-73
2021/06/04 11:34:33;;;;;;;;;;;;;;;23.29;50.82;101977.84;5037570;28;1937;-74
2021/06/04 11:37:00;;;;;;;;;;;;;;;23.30;51.04;101981.41;5049566;28;1171;-78
2021/06/04 11:39:32;;;;;;;;;;;;;;;23.28;50.37;101987.22;5050996;28;887;-78
2021/06/04 11:41:59;;;;;;;;;;;;;;;23.31;50.27;101974.81;5060984;28;1175;-78
2021/06/04 11:44:24;;;;;;;;;;;;;;;23.32;50.82;101982.78;5051348;28;1286;-84
2021/06/04 11:47:10;;;;;;;;;;;;;;;23.32;50.99;101981.94;5050219;28;1292;-78
2021/06/04 11:49:54;;;;;;;;;;;;;;;23.28;51.04;101983.63;5049043;28;1274;-75
2021/06/04 11:52:36;;;;;;;;;;;;;;;23.27;50.55;101988.31;5046373;28;1316;-77
2021/06/04 11:55:08;;;;;;;;;;;;;;;23.31;51.08;101983.06;5033945;28;1914;-77
2021/06/04 11:57:43;;;;;;;;;;;;;;;23.28;49.87;101981.72;5047610;28;1716;-76
2021/06/04 12:00:09;;;;;;;;;;;;;;;23.28;49.81;101991.88;5057870;28;1464;-74
2021/06/04 12:02:37;;;;;;;;;;;;;;;23.31;50.66;101986.63;5066152;28;1557;-77
2021/06/04 12:05:29;;;;;;;;;;;;;;;23.35;50.10;101988.84;5043885;28;1734;-77
2021/06/04 12:08:10;;;;;;;;;;;;;;;23.35;50.76;101988.84;5029369;28;1304;-79
2021/06/04 12:10:54;;;;;;;;;;;;;;;23.32;50.64;101999.28;5055507;28;1371;-77
2021/06/04 12:13:34;;;;;;;;;;;;;;;23.41;50.60;102002.25;5044842;28;1526;-80
2021/06/04 12:16:18;;;;;;;;;;;;;;;23.41;51.79;101996.75;5049033;28;1475;-69
2021/06/04 12:18:50;;;;;;;;;;;;;;;23.47;52.33;101992.06;5052070;28;1473;-74
2021/06/04 12:21:35;;;;;;;;;;;;;;;23.39;51.83;101990.72;5042215;28;1513;-76
2021/06/04 12:24:01;;;;;;;;;;;;;;;23.25;50.06;102000.69;5058934;28;2000;-75
2021/06/04 12:26:40;;;;;;;;;;;;;;;23.19;49.75;101999.06;5052803;28;1404;-74
2021/06/04 12:29:21;;;;;;;;;;;;;;;23.22;49.58;101993.84;5043275;28;1664;-71
2021/06/04 12:31:54;;;;;;;;;;;;;;;23.20;46.43;101998.81;5048875;28;1401;-79
2021/06/04 12:34:31;;;;;;;;;;;;;;;23.23;47.07;101997.41;5061377;28;1953;-77
2021/06/04 12:37:26;;;;;;;;;;;;;;;23.19;48.33;101997.13;5036250;28;2164;-71
2021/06/04 12:40:01;;;;;;;;;;;;;;;23.03;46.21;101990.88;5036075;28;1919;-73
2021/06/04 12:42:29;;;;;;;;;;;;;;;23.18;46.00;101995.50;5042447;28;1697;-73
2021/06/04 12:45:06;;;;;;;;;;;;;;;23.19;46.94;101991.66;5049560;28;1687;-76
2021/06/04 12:47:37;;;;;;;;;;;;;;;23.16;45.40;101989.47;5044755;28;1758;-76
2021/06/04 12:50:12;;;;;;;;;;;;;;;23.27;46.83;101991.06;5049428;28;1386;-77
2021/06/04 12:52:38;;;;;;;;;;;;;;;23.42;47.94;101992.91;5038308;28;1497;-85
2021/06/04 12:55:14;;;;;;;;;;;;;;;23.57;48.06;101989.25;5038018;28;1914;-72
2021/06/04 12:57:39;;;;;;;;;;;;;;;23.53;47.92;101988.16;5038307;28;1863;-72
2021/06/04 13:00:23;;;;;;;;;;;;;;;23.42;47.96;101998.41;5037685;28;1883;-72
2021/06/04 13:02:55;;;;;;;;;;;;;;;23.39;48.10;101996.22;5039792;28;1942;-72
2021/06/04 13:05:21;;;;;;;;;;;;;;;23.37;49.10;101992.94;5047310;28;1762;-72
2021/06/04 13:07:46;;;;;;;;;;;;;;;23.39;48.67;101990.72;5045204;28;1964;-72
2021/06/04 13:10:25;;;;;;;;;;;;;;;23.41;48.69;101988.50;5035338;28;1666;-72
2021/06/04 13:12:55;;;;;;;;;;;;;;;23.42;48.70;101984.66;5043234;28;1675;-72
2021/06/04 13:15:23;;;;;;;;;;;;;;;23.33;49.58;101986.34;5045942;28;1886;-69
2021/06/04 13:17:53;;;;;;;;;;;;;;;23.37;49.70;101992.13;5042028;28;1326;-70
2021/06/04 13:20:18;;;;;;;;;;;;;;;23.33;49.36;101987.16;5047892;28;1253;-70
2021/06/04 13:22:45;;;;;;;;;;;;;;;23.37;49.54;101998.44;5047807;28;901;-70
2021/06/04 13:25:10;;;;;;;;;;;;;;;23.26;49.15;101994.94;5046500;28;1440;-70
2021/06/04 13:27:35;;;;;;;;;;;;;;;23.24;48.85;101986.13;5048230;28;1358;-70
2021/06/04 13:30:04;;;;;;;;;;;;;;;23.21;46.91;101989.44;5054917;28;1585;-70
2021/06/04 13:32:41;;;;;;;;;;;;;;;23.20;47.19;101989.72;5048474;28;1599;-73
2021/06/04 13:35:18;;;;;;;;;;;;;;;23.28;46.86;101991.88;5044029;28;2094;-70
2021/06/04 13:37:50;;;;;;;;;;;;;;;23.32;47.54;101987.44;5049863;28;1703;-70
2021/06/04 13:40:17;;;;;;;;;;;;;;;23.32;47.42;101992.94;5050787;28;1522;-71
2021/06/04 13:42:44;;;;;;;;;;;;;;;23.29;47.05;101994.34;5060071;28;1520;-69
2021/06/04 13:45:13;;;;;;;;;;;;;;;23.25;47.14;101981.44;5048754;28;1481;-70
2021/06/04 13:47:47;;;;;;;;;;;;;;;23.26;46.96;101980.34;5039083;28;1751;-71
2021/06/04 13:50:27;;;;;;;;;;;;;;;23.25;47.21;101982.28;5039798;28;1820;-71
2021/06/04 13:53:00;;;;;;;;;;;;;;;23.27;46.68;101979.25;5042396;28;1661;-70
2021/06/04 13:55:26;;;;;;;;;;;;;;;23.27;46.71;101971.00;5040274;28;2057;-71
2021/06/04 13:58:11;;;;;;;;;;;;;;;23.24;46.88;101977.88;5044324;28;1902;-70
2021/06/04 14:00:36;;;;;;;;;;;;;;;23.29;46.88;101974.28;5045908;28;1773;-71
2021/06/04 14:03:15;;;;;;;;;;;;;;;23.24;47.15;101969.66;5048570;28;1826;-69
2021/06/04 14:05:55;;;;;;;;;;;;;;;23.32;47.65;101965.44;5048421;28;1475;-70
2021/06/04 14:08:22;;;;;;;;;;;;;;;23.30;47.58;101963.00;5049547;28;1431;-70
2021/06/04 14:10:55;;;;;;;;;;;;;;;23.32;47.64;101963.56;5047339;28;1679;-70
2021/06/04 14:13:22;;;;;;;;;;;;;;;23.39;47.69;101962.41;5047017;28;1356;-70
2021/06/04 14:15:50;;;;;;;;;;;;;;;23.37;47.56;101968.19;5047744;28;1933;-69
2021/06/04 14:18:28;;;;;;;;;;;;;;;23.33;48.19;101969.88;5047882;28;1121;-70
2021/06/04 14:20:53;;;;;;;;;;;;;;;23.30;48.28;101959.41;5047511;28;1069;-69
2021/06/04 14:23:30;;;;;;;;;;;;;;;23.28;48.54;101959.72;5047671;28;1129;-70
2021/06/04 14:26:14;;;;;;;;;;;;;;;23.30;48.75;101964.91;5040589;28;1738;-69
2021/06/04 14:28:39;;;;;;;;;;;;;;;23.31;48.92;101969.31;5038955;28;1889;-70
2021/06/04 14:31:06;;;;;;;;;;;;;;;23.33;49.94;101967.94;5043065;28;1108;-69
2021/06/04 14:33:39;;;;;;;;;;;;;;;23.42;49.95;101965.44;5062484;28;1382;-71
2021/06/04 14:36:05;;;;;;;;;;;;;;;23.45;49.95;101958.53;5050616;28;1415;-72
2021/06/04 14:38:36;;;;;;;;;;;;;;;23.41;50.83;101968.44;5067423;28;1133;-72
2021/06/04 14:41:04;;;;;;;;;;;;;;;23.42;50.78;101964.59;5046340;28;2060;-72
2021/06/04 14:43:29;;;;;;;;;;;;;;;23.42;51.28;101954.44;5038233;28;1693;-73
2021/06/04 14:45:55;;;;;;;;;;;;;;;23.46;50.82;101958.25;5038324;28;869;-73
2021/06/04 14:48:25;;;;;;;;;;;;;;;23.50;50.83;101950.22;5047292;28;868;-73
2021/06/04 14:50:52;;;;;;;;;;;;;;;23.47;50.93;101957.13;5045556;28;2027;-72
2021/06/04 14:53:17;;;;;;;;;;;;;;;23.42;50.98;101956.34;5058627;28;1891;-74
2021/06/04 14:55:43;;;;;;;;;;;;;;;23.45;51.10;101958.53;5034269;28;1925;-74
2021/06/04 14:58:08;;;;;;;;;;;;;;;23.46;51.52;101951.91;5038435;28;1568;-74
2021/06/04 15:00:34;;;;;;;;;;;;;;;23.48;51.59;101946.94;5034570;28;1793;-74
2021/06/04 15:02:59;;;;;;;;;;;;;;;23.49;52.11;101954.09;5035929;28;1777;-75
2021/06/04 15:05:25;;;;;;;;;;;;;;;23.48;51.97;101950.53;5031857;28;1749;-74
2021/06/04 15:07:52;;;;;;;;;;;;;;;23.46;52.34;101951.91;5031940;28;1945;-72
2021/06/04 15:10:18;;;;;;;;;;;;;;;23.51;51.42;101952.69;5039804;28;1497;-71
2021/06/04 15:12:43;;;;;;;;;;;;;;;23.45;51.46;101947.53;5044097;28;1289;-71
2021/06/04 15:15:11;;;;;;;;;;;;;;;23.43;50.38;101949.75;5044900;28;1882;-74
2021/06/04 15:17:37;;;;;;;;;;;;;;;23.37;50.98;101950.88;5047117;28;873;-74
2021/06/04 15:20:04;;;;;;;;;;;;;;;23.46;50.03;101950.00;5048760;28;1079;-73
2021/06/04 15:22:29;;;;;;;;;;;;;;;23.33;49.18;101956.94;5049564;28;971;-74
2021/06/04 15:24:54;;;;;;;;;;;;;;;23.15;49.47;101951.28;5049521;28;1210;-73
2021/06/04 15:27:20;;;;;;;;;;;;;;;23.10;49.13;101955.69;5050284;28;905;-72